createdAt,value
2023-02-19T00:02:04.846Z,10.50
2023-02-19T00:04:28.207Z,10.50
2023-02-19T00:06:52.930Z,10.40
2023-02-19T00:09:18.721Z,10.40
2023-02-19T00:11:42.251Z,10.30
2023-02-19T00:14:05.908Z,10.30
2023-02-19T00:16:31.492Z,10.30
2023-02-19T00:18:56.513Z,10.30
2023-02-19T00:21:20.462Z,10.20
2023-02-19T00:23:45.408Z,10.20
2023-02-19T00:26:18.114Z,10.20
2023-02-19T00:28:42.294Z,10.20
2023-02-19T00:31:07.673Z,10.20
2023-02-19T00:33:31.161Z,10.20
2023-02-19T00:35:54.674Z,10.20
2023-02-19T00:38:18.375Z,10.20
2023-02-19T00:40:42.981Z,10.20
2023-02-19T00:43:06.344Z,10.30
2023-02-19T00:45:29.624Z,10.30
2023-02-19T00:47:53.806Z,10.30
2023-02-19T00:50:17.353Z,10.30
2023-02-19T00:52:40.687Z,10.40
2023-02-19T00:55:04.038Z,10.40
2023-02-19T00:57:28.790Z,10.30
2023-02-19T00:59:52.116Z,10.40
2023-02-19T01:02:15.313Z,10.30
2023-02-19T01:04:38.799Z,10.40
2023-02-19T01:07:03.334Z,10.40
2023-02-19T01:09:26.761Z,10.40
2023-02-19T01:11:50.088Z,10.40
2023-02-19T01:14:15.503Z,10.40
2023-02-19T01:16:39.126Z,10.40
2023-02-19T01:19:02.586Z,10.30
2023-02-19T01:21:28.717Z,10.30
2023-02-19T01:23:54.101Z,10.30
2023-02-19T01:26:20.533Z,10.20
2023-02-19T01:28:44.530Z,10.20
2023-02-19T01:31:13.667Z,10.30
2023-02-19T01:33:37.165Z,10.30
2023-02-19T01:36:01.083Z,10.30
2023-02-19T01:38:24.535Z,10.40
2023-02-19T01:40:57.413Z,10.40
2023-02-19T01:43:20.737Z,10.40
2023-02-19T01:45:45.765Z,10.30
2023-02-19T01:48:16.700Z,10.30
2023-02-19T01:50:45.777Z,10.30
2023-02-19T01:53:11.280Z,10.40
2023-02-19T01:55:36.429Z,10.30
2023-02-19T01:58:00.289Z,10.40
2023-02-19T02:00:25.770Z,10.40
2023-02-19T02:02:53.783Z,10.30
2023-02-19T02:05:32.497Z,10.40
2023-02-19T02:08:25.431Z,10.40
2023-02-19T02:10:48.776Z,10.40
2023-02-19T02:13:12.066Z,10.40
2023-02-19T02:15:45.446Z,10.40
2023-02-19T02:18:16.559Z,10.50
2023-02-19T02:21:04.909Z,10.40
2023-02-19T02:23:42.682Z,10.40
2023-02-19T02:26:21.041Z,10.40
2023-02-19T02:29:12.969Z,10.40
2023-02-19T02:31:42.880Z,10.30
2023-02-19T02:34:14.058Z,10.30
2023-02-19T02:36:40.677Z,10.30
2023-02-19T02:39:10.240Z,10.30
2023-02-19T02:41:35.199Z,10.30
2023-02-19T02:43:58.542Z,10.30
2023-02-19T02:46:27.343Z,10.30
2023-02-19T02:48:56.741Z,10.30
2023-02-19T02:51:26.566Z,10.30
2023-02-19T02:54:19.462Z,10.30
2023-02-19T02:56:44.724Z,10.30
2023-02-19T02:59:11.701Z,10.30
2023-02-19T03:01:59.210Z,10.30
2023-02-19T03:04:30.915Z,10.20
2023-02-19T03:06:55.835Z,10.20
2023-02-19T03:09:30.325Z,10.20
2023-02-19T03:12:14.147Z,10.20
2023-02-19T03:15:03.797Z,10.20
2023-02-19T03:17:52.094Z,10.20
2023-02-19T03:20:20.842Z,10.20
2023-02-19T03:22:46.618Z,10.20
2023-02-19T03:25:41.236Z,10.30
2023-02-19T03:28:08.227Z,10.30
2023-02-19T03:30:35.161Z,10.30
2023-02-19T03:33:02.693Z,10.30
2023-02-19T03:35:31.675Z,10.30
2023-02-19T03:38:06.158Z,10.30
2023-02-19T03:40:32.354Z,10.30
2023-02-19T03:43:04.820Z,10.30
2023-02-19T03:45:43.922Z,10.30
2023-02-19T03:48:31.204Z,10.30
2023-02-19T03:51:07.320Z,10.30
2023-02-19T03:53:36.316Z,10.30
2023-02-19T03:56:11.117Z,10.30
2023-02-19T03:58:43.333Z,10.30
2023-02-19T04:01:11.821Z,10.30
2023-02-19T04:03:43.108Z,10.30
2023-02-19T04:06:15.383Z,10.10
2023-02-19T04:08:42.050Z,10.00
2023-02-19T04:11:06.820Z,10.00
2023-02-19T04:13:37.040Z,10.10
2023-02-19T04:16:05.439Z,10.00
2023-02-19T04:18:32.868Z,10.00
2023-02-19T04:20:57.830Z,10.00
2023-02-19T04:23:26.605Z,10.10
2023-02-19T04:25:57.055Z,10.00
2023-02-19T04:28:20.423Z,9.90
2023-02-19T04:30:44.308Z,9.90
2023-02-19T04:33:07.877Z,9.90
2023-02-19T04:35:31.554Z,9.90
2023-02-19T04:37:54.821Z,9.90
2023-02-19T04:40:20.042Z,9.90
2023-02-19T04:42:43.279Z,9.90
2023-02-19T04:45:07.271Z,9.80
2023-02-19T04:47:30.510Z,9.80
2023-02-19T04:49:53.914Z,9.80
2023-02-19T04:52:17.245Z,9.80
2023-02-19T04:54:40.632Z,9.80
2023-02-19T04:57:05.426Z,9.90
2023-02-19T04:59:29.448Z,9.80
2023-02-19T05:01:52.960Z,9.80
2023-02-19T05:04:16.521Z,9.80
2023-02-19T05:06:39.808Z,9.80
2023-02-19T05:09:03.125Z,9.80
2023-02-19T05:11:26.693Z,9.80
2023-02-19T05:13:51.758Z,9.70
2023-02-19T05:16:17.134Z,9.80
2023-02-19T05:18:41.532Z,9.80
2023-02-19T05:21:05.063Z,9.80
2023-02-19T05:23:29.705Z,9.80
2023-02-19T05:25:53.273Z,9.80
2023-02-19T05:28:19.688Z,9.80
2023-02-19T05:30:45.006Z,9.80
2023-02-19T05:33:08.892Z,9.70
2023-02-19T05:35:32.454Z,9.70
2023-02-19T05:37:55.635Z,9.80
2023-02-19T05:40:19.099Z,9.70
2023-02-19T05:42:42.347Z,9.70
2023-02-19T05:45:06.547Z,9.80
2023-02-19T05:47:31.163Z,9.70
2023-02-19T05:49:54.485Z,9.70
2023-02-19T05:52:17.740Z,9.70
2023-02-19T05:54:41.147Z,9.70
2023-02-19T05:57:04.515Z,9.70
2023-02-19T05:59:29.090Z,9.70
2023-02-19T06:01:54.044Z,9.70
2023-02-19T06:04:20.406Z,9.70
2023-02-19T06:06:44.673Z,9.60
2023-02-19T06:09:09.364Z,9.60
2023-02-19T06:11:33.519Z,9.60
2023-02-19T06:13:56.973Z,9.60
2023-02-19T06:16:21.949Z,9.60
2023-02-19T06:18:45.694Z,9.50
2023-02-19T06:21:13.092Z,9.60
2023-02-19T06:23:36.963Z,9.50
2023-02-19T06:26:09.331Z,9.50
2023-02-19T06:28:32.669Z,9.40
2023-02-19T06:30:55.904Z,9.40
2023-02-19T06:33:19.160Z,9.50
2023-02-19T06:35:42.404Z,9.50
2023-02-19T06:38:06.989Z,9.50
2023-02-19T06:40:30.227Z,9.50
2023-02-19T06:42:53.508Z,9.40
2023-02-19T06:45:16.878Z,9.40
2023-02-19T06:47:40.203Z,9.50
2023-02-19T06:50:03.644Z,9.50
2023-02-19T06:52:27.501Z,9.50
2023-02-19T06:54:52.334Z,9.50
2023-02-19T06:57:15.641Z,9.50
2023-02-19T06:59:38.945Z,9.50
2023-02-19T07:02:02.510Z,9.50
2023-02-19T07:04:25.778Z,9.50
2023-02-19T07:06:49.162Z,9.50
2023-02-19T07:09:13.112Z,9.50
2023-02-19T07:11:40.448Z,9.50
2023-02-19T07:14:07.598Z,9.50
2023-02-19T07:16:31.524Z,9.50
2023-02-19T07:18:57.420Z,9.50
2023-02-19T07:21:21.147Z,9.50
2023-02-19T07:23:45.420Z,9.50
2023-02-19T07:26:12.161Z,9.50
2023-02-19T07:28:36.727Z,9.40
2023-02-19T07:31:02.612Z,9.30
2023-02-19T07:33:25.972Z,9.30
2023-02-19T07:35:50.154Z,9.30
2023-02-19T07:38:13.432Z,9.30
2023-02-19T07:40:37.370Z,9.30
2023-02-19T07:43:01.431Z,9.30
2023-02-19T07:45:25.997Z,9.30
2023-02-19T07:47:49.192Z,9.30
2023-02-19T07:50:13.967Z,9.30
2023-02-19T07:52:37.367Z,9.40
2023-02-19T07:55:00.734Z,9.40
2023-02-19T07:57:23.977Z,9.40
2023-02-19T07:59:47.368Z,9.40
2023-02-19T08:02:35.845Z,9.40
2023-02-19T08:04:59.227Z,9.40
2023-02-19T08:07:22.434Z,9.40
2023-02-19T08:10:05.718Z,9.40
2023-02-19T08:12:46.740Z,9.50
2023-02-19T08:15:10.423Z,9.50
2023-02-19T08:17:35.020Z,9.50
2023-02-19T08:19:58.320Z,9.50
2023-02-19T08:22:21.555Z,9.50
2023-02-19T08:24:45.069Z,9.50
2023-02-19T08:27:08.786Z,9.50
2023-02-19T08:29:32.019Z,9.50
2023-02-19T08:31:55.292Z,9.50
2023-02-19T08:34:19.940Z,9.50
2023-02-19T08:36:44.170Z,9.50
2023-02-19T08:39:07.496Z,9.50
2023-02-19T08:41:30.788Z,9.60
2023-02-19T08:43:54.120Z,9.70
2023-02-19T08:46:17.616Z,9.70
2023-02-19T08:48:41.728Z,9.70
2023-02-19T08:51:09.581Z,9.80
2023-02-19T08:53:34.178Z,9.80
2023-02-19T08:55:57.670Z,9.80
2023-02-19T08:58:21.158Z,9.80
2023-02-19T09:00:44.724Z,9.80
2023-02-19T09:03:07.996Z,9.80
2023-02-19T09:05:31.277Z,9.80
2023-02-19T09:07:55.935Z,9.80
2023-02-19T09:10:19.420Z,9.80
2023-02-19T09:12:43.117Z,9.80
2023-02-19T09:15:07.311Z,9.70
2023-02-19T09:17:30.627Z,9.70
2023-02-19T09:19:54.016Z,9.80
2023-02-19T09:22:17.295Z,9.80
2023-02-19T09:24:41.910Z,9.80
2023-02-19T09:27:05.309Z,9.80
2023-02-19T09:29:29.951Z,9.50
2023-02-19T09:31:57.413Z,9.40
2023-02-19T09:34:20.668Z,9.40
2023-02-19T09:36:43.925Z,9.40
2023-02-19T09:39:12.459Z,9.40
2023-02-19T09:41:41.252Z,9.50
2023-02-19T09:44:08.422Z,9.50
2023-02-19T09:46:36.236Z,9.50
2023-02-19T09:49:12.587Z,9.60
2023-02-19T09:51:38.845Z,9.70
2023-02-19T09:54:03.717Z,9.70
2023-02-19T09:56:28.218Z,9.70
2023-02-19T09:58:55.708Z,10.00
2023-02-19T10:01:19.944Z,10.10
2023-02-19T10:03:47.110Z,10.10
2023-02-19T10:06:21.792Z,10.00
2023-02-19T10:08:48.242Z,10.10
2023-02-19T10:11:13.983Z,10.10
2023-02-19T10:13:40.850Z,10.10
2023-02-19T10:16:09.943Z,10.20
2023-02-19T10:18:42.342Z,10.10
2023-02-19T10:21:06.837Z,10.10
2023-02-19T10:23:30.355Z,10.00
2023-02-19T10:25:58.073Z,10.00
2023-02-19T10:28:25.951Z,10.00
2023-02-19T10:30:53.383Z,10.00
2023-02-19T10:33:19.444Z,10.00
2023-02-19T10:35:58.053Z,9.80
2023-02-19T10:38:23.732Z,9.80
2023-02-19T10:40:47.824Z,9.80
2023-02-19T10:43:31.065Z,9.80
2023-02-19T10:45:54.661Z,9.70
2023-02-19T10:48:30.517Z,9.80
2023-02-19T10:50:58.084Z,9.80
2023-02-19T10:53:24.470Z,9.90
2023-02-19T10:55:47.739Z,10.00
2023-02-19T10:58:26.483Z,10.00
2023-02-19T11:00:49.789Z,10.00
2023-02-19T11:03:21.954Z,10.00
2023-02-19T11:06:01.176Z,9.90
2023-02-19T11:08:25.334Z,9.80
2023-02-19T11:10:49.870Z,9.70
2023-02-19T11:13:18.071Z,9.70
2023-02-19T11:15:42.760Z,9.70
2023-02-19T11:18:18.755Z,9.60
2023-02-19T11:20:51.205Z,9.60
2023-02-19T11:23:22.244Z,9.50
2023-02-19T11:25:47.684Z,9.60
2023-02-19T11:28:27.944Z,9.50
2023-02-19T11:30:51.409Z,9.50
2023-02-19T11:33:35.784Z,9.50
2023-02-19T11:36:36.568Z,9.50
2023-02-19T11:39:21.736Z,9.50
2023-02-19T11:42:14.840Z,9.60
2023-02-19T11:44:55.203Z,9.40
2023-02-19T11:48:05.962Z,9.50
2023-02-19T11:50:47.890Z,9.50
2023-02-19T11:53:23.895Z,9.50
2023-02-19T11:56:04.018Z,9.60
2023-02-19T11:59:08.465Z,9.70
2023-02-19T12:02:12.983Z,9.80
2023-02-19T12:05:26.811Z,9.70
2023-02-19T12:08:37.170Z,9.90
2023-02-19T12:11:25.279Z,10.10
2023-02-19T12:14:17.733Z,10.10
2023-02-19T12:16:45.999Z,10.20
2023-02-19T12:19:40.272Z,10.30
2023-02-19T12:22:21.204Z,10.20
2023-02-19T12:25:32.196Z,10.30
2023-02-19T12:28:23.131Z,10.30
2023-02-19T12:31:15.861Z,10.20
2023-02-19T12:34:20.701Z,10.10
2023-02-19T12:36:58.315Z,10.20
2023-02-19T12:39:31.843Z,10.20
2023-02-19T12:42:04.562Z,10.10
2023-02-19T12:44:43.149Z,10.10
2023-02-19T12:47:07.721Z,10.20
2023-02-19T12:49:37.851Z,10.20
2023-02-19T12:52:04.665Z,10.10
2023-02-19T12:54:32.932Z,10.20
2023-02-19T12:57:02.763Z,10.20
2023-02-19T12:59:32.897Z,10.10
2023-02-19T13:02:07.319Z,10.10
2023-02-19T13:04:42.723Z,10.10
2023-02-19T13:07:10.800Z,10.20
2023-02-19T13:09:40.390Z,10.20
2023-02-19T13:12:09.270Z,10.10
2023-02-19T13:14:38.395Z,10.10
2023-02-19T13:17:09.323Z,10.10
2023-02-19T13:19:33.839Z,10.10
2023-02-19T13:22:24.419Z,10.10
2023-02-19T13:24:48.214Z,10.00
2023-02-19T13:27:43.784Z,10.00
2023-02-19T13:30:27.451Z,10.10
2023-02-19T13:33:00.741Z,10.10
2023-02-19T13:35:42.787Z,10.10
2023-02-19T13:38:07.675Z,10.10
2023-02-19T13:40:35.606Z,10.20
2023-02-19T13:43:01.354Z,10.20
2023-02-19T13:45:34.512Z,10.20
2023-02-19T13:48:04.131Z,10.20
2023-02-19T13:50:29.487Z,10.20
2023-02-19T13:52:53.183Z,10.20
2023-02-19T13:55:50.761Z,10.20
2023-02-19T13:59:01.482Z,10.20
2023-02-19T14:02:23.208Z,10.10
2023-02-19T14:04:53.215Z,10.20
2023-02-19T14:08:03.802Z,10.10
2023-02-19T14:11:05.031Z,10.10
2023-02-19T14:14:09.821Z,10.10
2023-02-19T14:17:04.757Z,10.20
2023-02-19T14:20:05.046Z,10.10
2023-02-19T14:23:15.766Z,10.10
2023-02-19T14:25:50.278Z,10.20
2023-02-19T14:28:36.895Z,10.20
2023-02-19T14:31:04.762Z,10.20
2023-02-19T14:33:30.644Z,10.10
2023-02-19T14:35:59.071Z,10.10
2023-02-19T14:38:27.236Z,10.10
2023-02-19T14:40:53.098Z,10.10
2023-02-19T14:43:19.406Z,10.10
2023-02-19T14:45:46.580Z,10.10
2023-02-19T14:48:19.073Z,10.10
2023-02-19T14:50:44.578Z,10.10
2023-02-19T14:53:10.165Z,10.10
2023-02-19T14:55:37.774Z,10.10
2023-02-19T14:58:05.011Z,10.10
2023-02-19T15:00:31.190Z,10.10
2023-02-19T15:02:57.581Z,10.10
2023-02-19T15:05:26.284Z,10.10
2023-02-19T15:07:49.857Z,10.10
2023-02-19T15:10:16.161Z,10.10
2023-02-19T15:12:47.496Z,10.10
2023-02-19T15:15:19.619Z,10.00
2023-02-19T15:17:43.074Z,10.00
2023-02-19T15:20:13.095Z,10.00
2023-02-19T15:22:36.704Z,10.10
2023-02-19T15:25:02.746Z,10.00
2023-02-19T15:27:27.445Z,10.00
2023-02-19T15:29:53.725Z,10.00
2023-02-19T15:32:21.857Z,10.00
2023-02-19T15:34:56.388Z,10.00
2023-02-19T15:37:19.744Z,9.90
2023-02-19T15:39:47.255Z,9.90
2023-02-19T15:42:17.752Z,9.90
2023-02-19T15:44:48.422Z,9.90
2023-02-19T15:47:21.547Z,9.90
2023-02-19T15:49:53.239Z,9.90
2023-02-19T15:52:30.199Z,9.90
2023-02-19T15:55:01.097Z,9.80
2023-02-19T15:57:31.588Z,9.80
2023-02-19T16:00:01.534Z,9.80
2023-02-19T16:02:35.978Z,9.80
2023-02-19T16:05:02.162Z,9.70
2023-02-19T16:07:28.463Z,9.60
2023-02-19T16:10:07.426Z,9.60
2023-02-19T16:12:31.468Z,9.60
2023-02-19T16:14:56.102Z,9.50
2023-02-19T16:17:23.206Z,9.50
2023-02-19T16:19:53.485Z,9.50
2023-02-19T16:22:20.847Z,9.50
2023-02-19T16:24:47.172Z,9.40
2023-02-19T16:27:10.556Z,9.30
2023-02-19T16:29:34.883Z,9.30
2023-02-19T16:32:02.366Z,9.30
2023-02-19T16:34:37.509Z,9.30
2023-02-19T16:37:01.369Z,9.20
2023-02-19T16:39:25.515Z,9.10
2023-02-19T16:42:15.487Z,9.10
2023-02-19T16:44:38.933Z,9.10
2023-02-19T16:47:06.642Z,9.10
2023-02-19T16:49:30.016Z,9.10
2023-02-19T16:51:54.611Z,9.00
2023-02-19T16:54:18.544Z,9.00
2023-02-19T16:56:41.872Z,9.00
2023-02-19T16:59:07.134Z,9.00
2023-02-19T17:01:30.691Z,9.00
2023-02-19T17:04:01.581Z,9.00
2023-02-19T17:06:24.888Z,8.90
2023-02-19T17:08:48.228Z,8.90
2023-02-19T17:11:14.953Z,8.90
2023-02-19T17:13:38.320Z,8.90
2023-02-19T17:16:02.046Z,8.80
2023-02-19T17:18:25.492Z,8.70
2023-02-19T17:20:56.092Z,8.70
2023-02-19T17:23:19.407Z,8.70
2023-02-19T17:25:42.939Z,8.50
2023-02-19T17:28:06.588Z,8.50
2023-02-19T17:30:33.453Z,8.50
2023-02-19T17:32:56.996Z,8.40
2023-02-19T17:35:20.353Z,8.40
2023-02-19T17:37:45.069Z,8.30
2023-02-19T17:40:32.113Z,8.30
2023-02-19T17:42:56.749Z,8.30
2023-02-19T17:45:20.083Z,8.40
2023-02-19T17:47:43.660Z,8.30
2023-02-19T17:50:08.619Z,8.30
2023-02-19T17:52:32.108Z,8.40
2023-02-19T17:54:56.940Z,8.30
2023-02-19T17:57:20.400Z,8.30
2023-02-19T17:59:43.621Z,8.30
2023-02-19T18:02:07.497Z,8.20
2023-02-19T18:04:30.829Z,8.20
2023-02-19T18:06:55.871Z,8.20
2023-02-19T18:09:21.451Z,8.20
2023-02-19T18:11:47.408Z,8.20
2023-02-19T18:14:10.772Z,8.20
2023-02-19T18:16:34.245Z,8.10
2023-02-19T18:18:59.876Z,8.20
2023-02-19T18:21:26.030Z,8.30
2023-02-19T18:23:49.441Z,8.20
2023-02-19T18:26:13.785Z,8.20
2023-02-19T18:28:39.757Z,8.20
2023-02-19T18:31:03.281Z,8.20
2023-02-19T18:33:26.590Z,8.10
2023-02-19T18:35:50.417Z,8.10
2023-02-19T18:38:13.729Z,8.00
2023-02-19T18:40:37.249Z,8.00
2023-02-19T18:43:00.730Z,8.00
2023-02-19T18:45:27.480Z,8.00
2023-02-19T18:47:51.270Z,7.90
2023-02-19T18:50:14.942Z,7.90
2023-02-19T18:52:38.355Z,7.90
2023-02-19T18:55:01.962Z,8.00
2023-02-19T18:57:26.705Z,8.00
2023-02-19T18:59:50.594Z,7.90
2023-02-19T19:02:16.006Z,7.90
2023-02-19T19:04:41.240Z,7.90
2023-02-19T19:07:05.566Z,7.80
2023-02-19T19:09:28.913Z,7.90
2023-02-19T19:11:52.768Z,7.90
2023-02-19T19:14:16.165Z,7.90
2023-02-19T19:16:39.522Z,7.80
2023-02-19T19:19:04.523Z,7.90
2023-02-19T19:21:27.867Z,7.90
2023-02-19T19:23:51.327Z,7.90
2023-02-19T19:26:15.647Z,7.80
2023-02-19T19:28:44.192Z,7.80
2023-02-19T19:31:07.630Z,7.80
2023-02-19T19:33:30.950Z,7.80
2023-02-19T19:35:55.792Z,7.80
2023-02-19T19:38:19.373Z,7.80
2023-02-19T19:40:43.079Z,7.80
2023-02-19T19:43:06.482Z,7.80
2023-02-19T19:45:29.807Z,7.80
2023-02-19T19:47:53.575Z,7.80
2023-02-19T19:50:18.271Z,7.80
2023-02-19T19:52:43.273Z,7.80
2023-02-19T19:55:07.487Z,7.70
2023-02-19T19:57:30.810Z,7.60
2023-02-19T19:59:54.218Z,7.70
2023-02-19T20:02:19.011Z,7.70
2023-02-19T20:04:44.057Z,7.70
2023-02-19T20:07:07.420Z,7.70
2023-02-19T20:09:32.221Z,7.70
2023-02-19T20:11:56.434Z,7.70
2023-02-19T20:14:22.511Z,7.60
2023-02-19T20:16:47.434Z,7.60
2023-02-19T20:19:10.874Z,7.60
2023-02-19T20:21:34.366Z,7.60
2023-02-19T20:23:57.650Z,7.50
2023-02-19T20:26:27.366Z,7.50
2023-02-19T20:28:50.775Z,7.50
2023-02-19T20:31:14.703Z,7.40
2023-02-19T20:33:38.308Z,7.30
2023-02-19T20:36:02.768Z,7.30
2023-02-19T20:38:26.207Z,7.20
2023-02-19T20:40:49.825Z,7.10
2023-02-19T20:43:15.021Z,7.20
2023-02-19T20:45:38.489Z,7.10
2023-02-19T20:48:01.933Z,7.00
2023-02-19T20:50:25.780Z,7.10
2023-02-19T20:52:49.531Z,7.00
2023-02-19T20:55:13.543Z,7.00
2023-02-19T20:57:37.365Z,7.00
2023-02-19T21:00:02.242Z,6.90
2023-02-19T21:02:29.221Z,6.80
2023-02-19T21:04:52.754Z,6.80
2023-02-19T21:07:16.353Z,6.80
2023-02-19T21:09:39.705Z,6.80
2023-02-19T21:12:03.152Z,6.70
2023-02-19T21:14:27.204Z,6.70
2023-02-19T21:16:51.867Z,6.60
2023-02-19T21:19:15.315Z,6.60
2023-02-19T21:21:40.300Z,6.50
2023-02-19T21:24:04.299Z,6.50
2023-02-19T21:26:34.866Z,6.50
2023-02-19T21:28:58.271Z,6.50
2023-02-19T21:31:25.111Z,6.50
2023-02-19T21:33:50.093Z,6.50
2023-02-19T21:36:13.889Z,6.40
2023-02-19T21:38:37.346Z,6.40
2023-02-19T21:41:00.692Z,6.40
2023-02-19T21:43:24.198Z,6.40
2023-02-19T21:45:47.605Z,6.30
2023-02-19T21:48:11.040Z,6.30
2023-02-19T21:50:35.745Z,6.20
2023-02-19T21:53:00.262Z,6.20
2023-02-19T21:55:23.680Z,6.10
2023-02-19T21:57:47.073Z,6.10
2023-02-19T22:00:12.055Z,6.10
2023-02-19T22:02:35.874Z,6.00
2023-02-19T22:04:59.319Z,6.00
2023-02-19T22:07:24.407Z,6.00
2023-02-19T22:09:49.304Z,6.00
2023-02-19T22:12:12.646Z,6.00
2023-02-19T22:14:36.142Z,5.90
2023-02-19T22:16:59.419Z,5.90
2023-02-19T22:19:22.984Z,5.90
2023-02-19T22:21:46.361Z,5.80
2023-02-19T22:24:17.565Z,5.80
2023-02-19T22:26:40.998Z,5.80
2023-02-19T22:29:05.875Z,5.80
2023-02-19T22:31:29.947Z,5.80
2023-02-19T22:33:53.837Z,5.80
2023-02-19T22:36:19.205Z,5.80
2023-02-19T22:38:42.624Z,5.70
2023-02-19T22:41:07.456Z,5.70
2023-02-19T22:43:30.821Z,5.60
2023-02-19T22:45:54.190Z,5.60
2023-02-19T22:48:29.551Z,5.60
2023-02-19T22:50:54.961Z,5.70
2023-02-19T22:53:18.334Z,5.60
2023-02-19T22:55:41.648Z,5.50
2023-02-19T22:58:06.253Z,5.50
2023-02-19T23:00:29.678Z,5.50
2023-02-19T23:02:52.986Z,5.40
2023-02-19T23:05:16.452Z,5.50
2023-02-19T23:07:39.866Z,5.30
2023-02-19T23:10:03.232Z,5.30
2023-02-19T23:12:26.897Z,5.30
2023-02-19T23:14:51.501Z,5.20
2023-02-19T23:17:14.866Z,5.20
2023-02-19T23:19:38.091Z,5.20
2023-02-19T23:22:01.774Z,5.20
2023-02-19T23:24:25.028Z,5.10
2023-02-19T23:26:50.832Z,5.20
2023-02-19T23:29:17.775Z,5.10
2023-02-19T23:31:42.582Z,5.10
2023-02-19T23:34:07.981Z,5.10
2023-02-19T23:36:31.347Z,5.00
2023-02-19T23:38:54.648Z,5.00
2023-02-19T23:41:19.565Z,4.90
2023-02-19T23:43:42.932Z,4.90
2023-02-19T23:46:08.463Z,4.90
2023-02-19T23:48:33.716Z,4.80
2023-02-19T23:50:57.554Z,4.80
2023-02-19T23:53:21.035Z,4.80
2023-02-19T23:55:44.449Z,4.80
2023-02-19T23:58:07.885Z,4.80
